Beverly Manor, Illinois
Current Conditions -  °F | °C
As of 11:54 AM on Friday 28 Nov 2014 (Local Time) from KPIA Reporting Station
Clear Clear  
Wind Chill: 25°   Ceiling: Unl
Heat Index: 34°   Visibility: 8mi
Dew Point: 25°   Wind: 14mph
Humidity: 70%   Direction: 180°S
Pressure: 30.04"   Gusts: 26mph
Location:  40.703°N, 89.4173°W
Report Text: KPIA 281754Z 18012G23KT 8SM CLR 01/M04 A3004 RMK AO2 SLP181 T00111039 10011 21072 58051
Loading
Personal Weather Stations






























Interactive Weather Map New forecast layout! Learn more

10-Day Weather Forecast

Advertisements
Track Severe Weather on mobile